Saturday, November 22, 2014
00:15 UTC
  |  Log In   |  Register Free
Airport Search:

Orlando Sanford International Airport
(KSFB)

FAA data valid effective November 13, 2014 - January 08, 2015 (unless otherwise noted).

 
 
 
 
 
 
 
 
 
 
 
 
 
 

Current Aviation Weather for Orlando Sanford International Airport (KSFB)

The most recent METAR observation for KSFB was updated at: 2323
METAR Summary (Translated METAR)
KSFB
212253Z 02007KT 10SM BKN090 19/12 A3027 RMK AO2 SLP251 T01890122
KORL
212253Z 03009KT 10SM FEW090 BKN110 19/13 A3027 RMK AO2 SLP253 T01940133
(14.8 nm SW from KSFB)
KDED
212255Z AUTO 02006KT 10SM FEW090 18/12 A3030 RMK AO1
(17.6 nm NW from KSFB)
TAF Summary (Translated TAF)
KSFB
211741Z 2118/2218 05016KT P6SM FEW045 SCT250 FM220000 04007KT P6SM SCT035 SCT100 FM221400 08013KT P6SM VCSH OVC030
  Airport Weather Conditions for KSFB

 Current Weather at SFB
65° F
Overcast
North winds at 8.1 mph
SFB NOAA Radar

Pressure: 30.27 in
Humidity: 70%
Wind: North at 8.1 MPH (7 KT)
Dew Point: 55.0°F
Visibility: 10.00 mi


Airport Weather Forecast for KSFB

Translated METAR and TAF for KSFB
Translated METAR for KSFB (0010 UTC 22 November 2014)
found at http://aviationweather.gov/adds/metars/
 
METAR text: KSFB 212353Z 01007KT 10SM SCT090 OVC110 18/13 A3027 RMK AO2 SLP251 T01830128 10233 20183 50004
Conditions at: KSFB (SANFORD/ORLANDO , FL, US) observed 2353 UTC 21 November 2014
Temperature: 18.3°C (65°F)
Dewpoint: 12.8°C (55°F) [RH = 70%]
Pressure (altimeter): 30.27 inches Hg (1025.1 mb)
[Sea-level pressure: 1025.1 mb]
Winds: from the N (10 degrees) at 8 MPH (7 knots; 3.6 m/s)
Visibility: 10 or more miles (16+ km)
Ceiling: 11000 feet AGL
Clouds: scattered clouds at 9000 feet AGL
overcast cloud deck at 11000 feet AGL
Weather: no significant weather observed at this time
Translated TAF for KSFB
Forecast for: KSFB (SANFORD/ORLANDO , FL, US)
TAF Text: KSFB 212322Z 2200/2224 02007KT P6SM FEW045 BKN100
Forecast period: 0000 to 0800 UTC 22 November 2014
Forecast type: FROM: standard forecast or significant change
Winds: from the NNE (20 degrees) at 8 MPH (7 knots; 3.6 m/s)
Visibility: 6 or more miles (10+ km)
Ceiling: 10000 feet AGL
Clouds: few clouds at 4500 feet AGL
broken clouds at 10000 feet AGL
Weather: no significant weather forecast for this period
TAF Text: FM220800 03006KT P6SM VCSH SCT035 OVC090
Forecast period: 0800 to 1400 UTC 22 November 2014
Forecast type: FROM: standard forecast or significant change
Winds: from the NNE (30 degrees) at 7 MPH (6 knots; 3.1 m/s)
Visibility: 6 or more miles (10+ km)
Ceiling: 9000 feet AGL
Clouds: scattered clouds at 3500 feet AGL
overcast cloud deck at 9000 feet AGL
Weather: VCSH  (showers in vicinity)
TAF Text: FM221400 07013G18KT P6SM VCSH OVC030
Forecast period: 1400 UTC 22 November 2014 to 0000 UTC 23 November 2014
Forecast type: FROM: standard forecast or significant change
Winds: from the ENE (70 degrees) at 15 MPH (13 knots; 6.8 m/s)
gusting to 21 MPH (18 knots; 9.4 m/s)
Visibility: 6 or more miles (10+ km)
Ceiling: 3000 feet AGL
Clouds: overcast cloud deck at 3000 feet AGL
Weather: VCSH  (showers in vicinity)

Find All Airport Services Find A Hotel Find A Rental Car Find A Golf Course Find A Restaurant $100 Hamburger



FBO's on the Field
FBO Company Facility Photos Services Transportation Aviation Fuel Prices: Prices include tax
Catering Weather Repair Courtesy Rental Type 100LL JetA JetA+ MOGAS 8087
 
StarPort

StarPort logo
Currently rated 3.8 by 7 people
FS:
Last Updated: Nov-17
Login to update fuel prices
SS:
Contact StarPortMore FBO Information
 
Million Air Sanford

Currently rated 3.6 by 3 people
FS:Avfuel
Last Updated: Oct-30
Login to update fuel prices
SS:
Contact Million Air SanfordMore FBO Information
 
Add another FBO Facility Photos Catering Weather Repair Courtesy Rental Type 100LL JetA JetA+ MOGAS 8087
Services Transportation Aviation Fuel Prices: Prices include tax


model-print
model-print
model-print
model-print